Time;durP1;ratioP1;P1;durP2;ratioP2;P2;SDS_P1;SDS_P2;PMS_P1;PMS_P2;Temp;Humidity;BMP_temperature;BMP_pressure;BME280_temperature;BME280_humidity;BME280_pressure;Samples;Min_cycle;Max_cycle;Signal;HPM_P1;HPM_P2
2022/01/07 00:02:01;;;;;;;24.17;9.82;;;;;;;;;;6272462;22;20012;-65
2022/01/07 00:04:28;;;;;;;19.17;9.20;;;;;;;;;;6272153;22;20003;-65
2022/01/07 00:06:54;;;;;;;11.07;5.22;;;;;;;;;;6271428;22;20004;-67
2022/01/07 00:09:20;;;;;;;10.48;5.10;;;;;;;;;;6273260;22;20331;-66
2022/01/07 00:11:46;;;;;;;15.45;7.75;;;;;;;;;;6272272;22;20053;-66
2022/01/07 00:14:12;;;;;;;5.03;3.00;;;;;;;;;;6272757;22;20078;-66
2022/01/07 00:16:39;;;;;;;6.78;3.17;;;;;;;;;;6271550;22;20373;-64
2022/01/07 00:19:05;;;;;;;4.93;2.45;;;;;;;;;;6272888;22;20027;-67
2022/01/07 00:21:31;;;;;;;7.30;3.38;;;;;;;;;;6271555;22;20083;-68
2022/01/07 00:23:57;;;;;;;6.20;3.33;;;;;;;;;;6271967;22;20007;-66
2022/01/07 00:26:23;;;;;;;5.25;3.65;;;;;;;;;;6271434;22;20018;-65
2022/01/07 00:28:49;;;;;;;4.10;2.72;;;;;;;;;;6272329;22;19996;-66
2022/01/07 00:31:15;;;;;;;5.40;2.60;;;;;;;;;;6272001;22;20430;-66
2022/01/07 00:33:41;;;;;;;6.72;2.63;;;;;;;;;;6271674;22;20092;-66
2022/01/07 00:36:08;;;;;;;4.90;2.88;;;;;;;;;;6271143;22;20000;-67
2022/01/07 00:38:35;;;;;;;5.60;2.78;;;;;;;;;;6272125;22;20318;-66
2022/01/07 00:41:01;;;;;;;3.65;2.42;;;;;;;;;;6271673;22;20075;-67
2022/01/07 00:43:27;;;;;;;4.55;2.42;;;;;;;;;;6270566;22;20011;-66
2022/01/07 00:45:53;;;;;;;2.75;2.13;;;;;;;;;;6271753;22;20016;-66
2022/01/07 00:48:19;;;;;;;5.65;2.40;;;;;;;;;;6272185;22;20007;-68
2022/01/07 00:50:45;;;;;;;4.93;2.40;;;;;;;;;;6271461;22;20011;-67
2022/01/07 00:53:11;;;;;;;2.35;2.08;;;;;;;;;;6271275;22;20003;-67
2022/01/07 00:55:37;;;;;;;6.32;2.60;;;;;;;;;;6272480;22;20010;-66
2022/01/07 00:58:04;;;;;;;3.80;2.10;;;;;;;;;;6270836;22;20011;-66
2022/01/07 01:00:30;;;;;;;5.25;2.83;;;;;;;;;;6270896;22;20010;-66
2022/01/07 01:02:56;;;;;;;3.88;2.47;;;;;;;;;;6270968;22;20004;-66
2022/01/07 01:05:23;;;;;;;4.70;2.92;;;;;;;;;;6273198;22;20010;-65
2022/01/07 01:07:49;;;;;;;4.15;2.05;;;;;;;;;;6271053;22;20023;-63
2022/01/07 01:10:16;;;;;;;3.72;2.40;;;;;;;;;;6272284;22;20078;-67
2022/01/07 01:12:43;;;;;;;2.65;2.00;;;;;;;;;;6269569;22;20004;-64
2022/01/07 01:15:11;;;;;;;4.43;2.10;;;;;;;;;;6271995;22;20003;-67
2022/01/07 01:17:37;;;;;;;1.92;1.77;;;;;;;;;;6271190;22;20499;-67
2022/01/07 01:20:05;;;;;;;4.05;1.70;;;;;;;;;;6271985;22;20003;-66
2022/01/07 01:22:31;;;;;;;3.47;2.10;;;;;;;;;;6270524;22;20004;-67
2022/01/07 01:24:57;;;;;;;1.90;1.63;;;;;;;;;;6271793;22;20347;-67
2022/01/07 01:27:23;;;;;;;2.38;1.80;;;;;;;;;;6270843;22;20020;-65
2022/01/07 01:29:49;;;;;;;2.67;1.73;;;;;;;;;;6271859;22;20141;-67
2022/01/07 01:32:16;;;;;;;2.55;2.05;;;;;;;;;;6271213;22;20035;-67
2022/01/07 01:34:42;;;;;;;2.10;1.90;;;;;;;;;;6270881;22;20007;-66
2022/01/07 01:37:09;;;;;;;4.68;2.10;;;;;;;;;;6270420;22;20446;-67
2022/01/07 01:39:35;;;;;;;1.98;1.77;;;;;;;;;;6272589;22;20061;-67
2022/01/07 01:42:01;;;;;;;4.47;1.80;;;;;;;;;;6269721;22;20049;-67
2022/01/07 01:44:27;;;;;;;2.08;1.73;;;;;;;;;;6272558;22;20000;-67
2022/01/07 01:46:53;;;;;;;2.70;1.80;;;;;;;;;;6270708;22;20030;-65
2022/01/07 01:49:19;;;;;;;3.15;1.65;;;;;;;;;;6272752;22;20319;-67
2022/01/07 01:51:47;;;;;;;4.75;2.90;;;;;;;;;;6271292;22;20000;-66
2022/01/07 01:54:13;;;;;;;2.28;1.90;;;;;;;;;;6271521;22;20012;-64
2022/01/07 01:56:41;;;;;;;4.57;3.90;;;;;;;;;;6271550;22;20079;-66
2022/01/07 01:59:07;;;;;;;4.15;2.35;;;;;;;;;;6271033;22;20083;-67
2022/01/07 02:01:34;;;;;;;3.22;2.85;;;;;;;;;;6270737;22;20134;-66
2022/01/07 02:04:00;;;;;;;5.95;3.90;;;;;;;;;;6270874;22;20058;-65
2022/01/07 02:06:27;;;;;;;6.35;2.83;;;;;;;;;;6273717;22;20000;-66
2022/01/07 02:08:53;;;;;;;4.45;1.90;;;;;;;;;;6271293;22;20343;-66
2022/01/07 02:11:19;;;;;;;3.28;1.80;;;;;;;;;;6273304;22;20316;-67
2022/01/07 02:13:48;;;;;;;3.80;1.88;;;;;;;;;;6271739;22;20007;-65
2022/01/07 02:16:15;;;;;;;5.15;1.85;;;;;;;;;;6273083;22;20015;-67
2022/01/07 02:18:42;;;;;;;3.90;1.90;;;;;;;;;;6270602;22;20000;-67
2022/01/07 02:21:08;;;;;;;3.33;1.83;;;;;;;;;;6272895;22;20013;-67
2022/01/07 02:23:36;;;;;;;5.35;2.58;;;;;;;;;;6272301;22;20011;-65
2022/01/07 02:26:02;;;;;;;3.45;1.98;;;;;;;;;;6270993;22;20014;-66
2022/01/07 02:28:28;;;;;;;2.90;1.83;;;;;;;;;;6272499;22;20147;-66
2022/01/07 02:30:55;;;;;;;2.45;2.25;;;;;;;;;;6277097;22;19999;-64
2022/01/07 02:33:21;;;;;;;3.53;1.75;;;;;;;;;;6272139;22;20000;-66
2022/01/07 02:35:47;;;;;;;4.40;1.70;;;;;;;;;;6271732;22;20028;-66
2022/01/07 02:38:16;;;;;;;2.20;1.90;;;;;;;;;;6272798;22;20003;-65
2022/01/07 02:40:42;;;;;;;2.22;1.80;;;;;;;;;;6271680;22;20023;-66
2022/01/07 02:43:09;;;;;;;3.05;1.70;;;;;;;;;;6273409;22;20008;-66
2022/01/07 02:45:35;;;;;;;3.35;2.17;;;;;;;;;;6274494;22;20003;-65
2022/01/07 02:48:03;;;;;;;3.90;1.88;;;;;;;;;;6272924;22;19996;-67
2022/01/07 02:50:30;;;;;;;1.95;1.85;;;;;;;;;;6272942;22;20019;-65
2022/01/07 02:52:57;;;;;;;2.08;1.58;;;;;;;;;;6273546;22;20000;-67
2022/01/07 02:55:24;;;;;;;4.10;1.63;;;;;;;;;;6272490;22;20000;-67
2022/01/07 02:57:50;;;;;;;1.67;1.52;;;;;;;;;;6273037;22;19999;-66
2022/01/07 03:00:19;;;;;;;2.70;2.03;;;;;;;;;;6272634;22;20007;-64
2022/01/07 03:02:46;;;;;;;6.28;2.15;;;;;;;;;;6273270;22;20011;-65
2022/01/07 03:05:13;;;;;;;2.80;1.90;;;;;;;;;;6272337;22;20004;-67
2022/01/07 03:07:39;;;;;;;5.20;1.88;;;;;;;;;;6272163;22;20000;-66
2022/01/07 03:10:07;;;;;;;12.55;3.97;;;;;;;;;;6271597;22;20382;-64
2022/01/07 03:12:33;;;;;;;5.57;3.25;;;;;;;;;;6272867;22;20057;-68
2022/01/07 03:14:59;;;;;;;6.80;4.32;;;;;;;;;;6271841;22;20027;-68
2022/01/07 03:17:25;;;;;;;6.05;3.47;;;;;;;;;;6272197;22;20018;-66
2022/01/07 03:19:51;;;;;;;4.72;3.22;;;;;;;;;;6272194;22;20390;-66
2022/01/07 03:22:17;;;;;;;2.88;2.00;;;;;;;;;;6271340;22;20386;-67
2022/01/07 03:24:43;;;;;;;5.55;2.83;;;;;;;;;;6273111;22;20027;-67
2022/01/07 03:27:10;;;;;;;4.05;3.00;;;;;;;;;;6272224;22;20043;-68
2022/01/07 03:29:36;;;;;;;11.00;5.93;;;;;;;;;;6273099;22;20046;-67
2022/01/07 03:32:02;;;;;;;7.63;2.38;;;;;;;;;;6272211;22;20008;-66
2022/01/07 03:34:28;;;;;;;4.15;2.55;;;;;;;;;;6272931;22;20015;-67
2022/01/07 03:36:54;;;;;;;7.50;1.80;;;;;;;;;;6271649;22;20012;-66
2022/01/07 03:39:20;;;;;;;1.85;1.50;;;;;;;;;;6273074;22;20027;-67
2022/01/07 03:41:46;;;;;;;6.05;2.20;;;;;;;;;;6271603;22;20008;-67
2022/01/07 03:44:12;;;;;;;2.65;1.77;;;;;;;;;;6272313;22;20486;-66
2022/01/07 03:46:38;;;;;;;3.72;1.98;;;;;;;;;;6272127;22;20006;-66
2022/01/07 03:49:04;;;;;;;2.42;1.85;;;;;;;;;;6272422;22;20008;-66
2022/01/07 03:51:30;;;;;;;2.10;1.75;;;;;;;;;;6272111;22;20045;-66
2022/01/07 03:53:56;;;;;;;3.42;2.15;;;;;;;;;;6272708;22;20003;-66
2022/01/07 03:56:22;;;;;;;3.55;2.15;;;;;;;;;;6277222;22;20004;-67
2022/01/07 03:58:48;;;;;;;5.75;2.67;;;;;;;;;;6272099;22;20000;-67
2022/01/07 04:01:15;;;;;;;5.85;2.58;;;;;;;;;;6272168;22;19995;-66
2022/01/07 04:03:41;;;;;;;5.72;4.15;;;;;;;;;;6272315;22;20000;-67
2022/01/07 04:06:07;;;;;;;6.68;3.58;;;;;;;;;;6266311;22;20035;-68
2022/01/07 04:08:33;;;;;;;8.38;4.28;;;;;;;;;;6272011;22;20006;-67
2022/01/07 04:10:59;;;;;;;5.45;2.47;;;;;;;;;;6273355;22;20103;-66
2022/01/07 04:13:25;;;;;;;4.55;2.20;;;;;;;;;;6271548;22;20006;-65
2022/01/07 04:15:51;;;;;;;4.60;2.13;;;;;;;;;;6271244;22;20031;-67
2022/01/07 04:18:17;;;;;;;6.35;2.35;;;;;;;;;;6271094;22;20075;-66
2022/01/07 04:20:44;;;;;;;6.03;2.22;;;;;;;;;;6271361;22;20012;-67
2022/01/07 04:23:10;;;;;;;7.20;2.33;;;;;;;;;;6272408;22;20000;-64
2022/01/07 04:25:36;;;;;;;4.50;2.40;;;;;;;;;;6271187;22;19999;-67
2022/01/07 04:28:06;;;;;;;3.92;1.83;;;;;;;;;;6272058;22;20108;-66
2022/01/07 04:30:34;;;;;;;5.20;2.53;;;;;;;;;;6270926;22;20000;-65
2022/01/07 04:33:02;;;;;;;7.55;2.20;;;;;;;;;;6272478;22;20003;-67
2022/01/07 04:35:28;;;;;;;3.92;2.55;;;;;;;;;;6271101;22;20007;-66
2022/01/07 04:37:55;;;;;;;5.55;2.00;;;;;;;;;;6272488;22;20007;-67
2022/01/07 04:40:21;;;;;;;7.70;2.42;;;;;;;;;;6271269;22;20008;-67
2022/01/07 04:42:47;;;;;;;5.57;1.92;;;;;;;;;;6272187;22;20003;-66
2022/01/07 04:45:13;;;;;;;6.97;2.53;;;;;;;;;;6274050;22;20069;-66
2022/01/07 04:47:40;;;;;;;7.93;2.42;;;;;;;;;;6271895;22;19996;-67
2022/01/07 04:50:09;;;;;;;4.63;2.13;;;;;;;;;;6270663;22;20030;-66
2022/01/07 04:52:36;;;;;;;5.55;3.03;;;;;;;;;;6272633;22;19995;-67
2022/01/07 04:55:02;;;;;;;4.90;2.00;;;;;;;;;;6271043;22;20008;-66
2022/01/07 04:57:28;;;;;;;3.35;2.17;;;;;;;;;;6269981;22;20080;-66
2022/01/07 04:59:54;;;;;;;4.22;1.95;;;;;;;;;;6270753;22;20032;-66
2022/01/07 05:02:20;;;;;;;12.00;2.45;;;;;;;;;;6272240;22;20011;-66
2022/01/07 05:04:47;;;;;;;4.10;1.70;;;;;;;;;;6270694;22;20006;-67
2022/01/07 05:07:14;;;;;;;2.35;1.73;;;;;;;;;;6271855;22;20071;-68
2022/01/07 05:09:40;;;;;;;4.90;2.10;;;;;;;;;;6271614;22;20003;-66
2022/01/07 05:12:06;;;;;;;8.40;2.28;;;;;;;;;;6271826;22;20000;-66
2022/01/07 05:14:32;;;;;;;6.00;2.05;;;;;;;;;;6271446;22;19999;-66
2022/01/07 05:16:58;;;;;;;5.38;1.90;;;;;;;;;;6272245;22;20026;-67
2022/01/07 05:19:24;;;;;;;3.80;2.05;;;;;;;;;;6272093;22;20035;-66
2022/01/07 05:21:50;;;;;;;3.58;1.75;;;;;;;;;;6271569;22;20475;-66
2022/01/07 05:24:16;;;;;;;2.33;1.73;;;;;;;;;;6270175;22;20008;-66
2022/01/07 05:26:42;;;;;;;3.08;1.65;;;;;;;;;;6271000;22;20008;-65
2022/01/07 05:29:08;;;;;;;1.67;1.58;;;;;;;;;;6273348;22;20000;-67
2022/01/07 05:31:34;;;;;;;4.47;1.67;;;;;;;;;;6271769;22;20034;-68
2022/01/07 05:34:01;;;;;;;7.70;2.00;;;;;;;;;;6271883;22;20004;-67
2022/01/07 05:36:27;;;;;;;3.15;2.15;;;;;;;;;;6270633;22;20102;-66
2022/01/07 05:38:53;;;;;;;3.45;1.85;;;;;;;;;;6271083;22;20025;-67
2022/01/07 05:41:20;;;;;;;4.95;1.80;;;;;;;;;;6271654;22;20010;-67
2022/01/07 05:43:46;;;;;;;2.58;1.75;;;;;;;;;;6271822;22;20333;-66
2022/01/07 05:46:14;;;;;;;2.72;1.63;;;;;;;;;;6271737;22;20006;-66
2022/01/07 05:48:44;;;;;;;8.90;2.00;;;;;;;;;;6271353;22;20375;-65
2022/01/07 05:51:10;;;;;;;7.50;1.88;;;;;;;;;;6271400;22;20074;-64
2022/01/07 05:53:36;;;;;;;5.15;1.63;;;;;;;;;;6271540;22;20430;-66
2022/01/07 05:56:03;;;;;;;2.55;1.50;;;;;;;;;;6270886;22;20007;-65
2022/01/07 05:58:29;;;;;;;2.60;1.70;;;;;;;;;;6271227;22;20027;-66
2022/01/07 06:00:55;;;;;;;4.60;1.98;;;;;;;;;;6271683;22;20596;-67
2022/01/07 06:03:21;;;;;;;4.60;1.77;;;;;;;;;;6272222;22;20005;-67
2022/01/07 06:05:47;;;;;;;5.00;1.77;;;;;;;;;;6270610;22;20373;-64
2022/01/07 06:08:13;;;;;;;5.38;2.45;;;;;;;;;;6271491;22;20060;-67
2022/01/07 06:10:39;;;;;;;5.90;2.00;;;;;;;;;;6271994;22;19996;-67
2022/01/07 06:13:05;;;;;;;4.65;1.67;;;;;;;;;;6271613;22;20000;-66
2022/01/07 06:15:31;;;;;;;6.50;2.35;;;;;;;;;;6271773;22;20370;-67
2022/01/07 06:17:59;;;;;;;5.38;2.05;;;;;;;;;;6270288;22;20038;-67
2022/01/07 06:20:26;;;;;;;3.40;1.63;;;;;;;;;;6272118;22;20003;-65
2022/01/07 06:22:52;;;;;;;1.88;1.60;;;;;;;;;;6270587;22;20011;-65
2022/01/07 06:25:18;;;;;;;4.95;1.92;;;;;;;;;;6276811;22;20007;-67
2022/01/07 06:27:44;;;;;;;4.18;2.05;;;;;;;;;;6270127;22;20036;-65
2022/01/07 06:30:10;;;;;;;4.50;2.45;;;;;;;;;;6275669;22;20109;-66
2022/01/07 06:32:37;;;;;;;5.60;2.22;;;;;;;;;;6275442;22;20069;-66
2022/01/07 06:35:03;;;;;;;4.60;2.17;;;;;;;;;;6271514;22;20003;-66
2022/01/07 06:37:29;;;;;;;5.30;1.90;;;;;;;;;;6271833;22;20000;-66
2022/01/07 06:39:56;;;;;;;4.60;2.25;;;;;;;;;;6270830;22;19999;-65
2022/01/07 06:42:22;;;;;;;2.63;2.00;;;;;;;;;;6271684;22;20373;-67
2022/01/07 06:44:49;;;;;;;5.65;2.22;;;;;;;;;;6271129;22;20034;-67
2022/01/07 06:47:15;;;;;;;3.38;1.92;;;;;;;;;;6275127;22;20311;-64
2022/01/07 06:49:41;;;;;;;4.18;2.10;;;;;;;;;;6270995;22;20054;-66
2022/01/07 06:52:07;;;;;;;2.28;2.05;;;;;;;;;;6273360;22;20000;-69
2022/01/07 06:54:33;;;;;;;5.78;2.88;;;;;;;;;;6272601;22;20031;-67
2022/01/07 06:56:59;;;;;;;3.15;1.73;;;;;;;;;;6273652;22;20008;-66
2022/01/07 06:59:25;;;;;;;5.28;1.90;;;;;;;;;;6271319;22;19999;-66
2022/01/07 07:01:51;;;;;;;2.80;1.88;;;;;;;;;;6273320;22;20004;-65
2022/01/07 07:04:18;;;;;;;1.50;1.40;;;;;;;;;;6271719;22;19999;-66
2022/01/07 07:06:45;;;;;;;3.60;2.05;;;;;;;;;;6272594;22;20034;-67
2022/01/07 07:09:11;;;;;;;2.75;1.88;;;;;;;;;;6273600;22;20126;-66
2022/01/07 07:11:37;;;;;;;3.97;1.83;;;;;;;;;;6271999;22;20010;-66
2022/01/07 07:14:03;;;;;;;6.07;2.00;;;;;;;;;;6275786;22;20003;-67
2022/01/07 07:16:30;;;;;;;5.63;1.90;;;;;;;;;;6273250;22;20015;-65
2022/01/07 07:18:56;;;;;;;6.38;2.08;;;;;;;;;;6273077;22;20101;-64
2022/01/07 07:21:22;;;;;;;7.95;2.83;;;;;;;;;;6272510;22;19999;-65
2022/01/07 07:23:48;;;;;;;2.17;1.48;;;;;;;;;;6273069;22;20035;-66
2022/01/07 07:26:14;;;;;;;4.20;2.17;;;;;;;;;;6271584;22;20004;-68
2022/01/07 07:28:40;;;;;;;3.60;2.00;;;;;;;;;;6271487;22;20008;-64
2022/01/07 07:31:11;;;;;;;4.20;1.75;;;;;;;;;;6271958;22;20419;-67
2022/01/07 07:36:27;;;;;;;4.65;1.60;;;;;;;;;;6282005;22;20023;-66
2022/01/07 07:38:53;;;;;;;6.05;2.75;;;;;;;;;;6273956;22;20415;-67
2022/01/07 07:41:19;;;;;;;3.90;2.47;;;;;;;;;;6270131;22;20004;-68
2022/01/07 07:43:47;;;;;;;3.17;2.33;;;;;;;;;;6272359;22;20003;-67
2022/01/07 07:46:13;;;;;;;8.07;2.50;;;;;;;;;;6271642;22;20049;-67
2022/01/07 07:48:40;;;;;;;5.05;2.50;;;;;;;;;;6272498;22;20006;-67
2022/01/07 07:51:06;;;;;;;7.82;2.70;;;;;;;;;;6272386;22;20027;-67
2022/01/07 07:53:32;;;;;;;5.32;2.72;;;;;;;;;;6272808;22;20003;-67
2022/01/07 07:55:58;;;;;;;3.97;1.88;;;;;;;;;;6272838;22;20330;-66
2022/01/07 07:58:27;;;;;;;8.25;2.53;;;;;;;;;;6272302;22;20078;-65
2022/01/07 08:00:54;;;;;;;6.63;2.25;;;;;;;;;;6272230;22;20080;-67
2022/01/07 08:03:21;;;;;;;6.07;2.60;;;;;;;;;;6271794;22;20003;-68
2022/01/07 08:05:47;;;;;;;8.55;2.50;;;;;;;;;;6270934;22;20053;-66
2022/01/07 08:08:13;;;;;;;7.03;2.60;;;;;;;;;;6273085;22;20073;-66
2022/01/07 08:10:46;;;;;;;8.60;2.80;;;;;;;;;;6271744;22;19996;-65
2022/01/07 08:18:24;;;;;;;7.20;2.33;;;;;;;;;;6273198;22;20062;-66
2022/01/07 08:20:50;;;;;;;3.10;2.10;;;;;;;;;;6271279;22;20379;-65
2022/01/07 08:23:17;;;;;;;6.75;1.90;;;;;;;;;;6271111;22;20031;-66
2022/01/07 08:25:43;;;;;;;10.23;2.63;;;;;;;;;;6267425;22;20003;-67
2022/01/07 08:28:11;;;;;;;5.68;2.17;;;;;;;;;;6264092;22;20054;-66
2022/01/07 08:30:48;;;;;;;4.72;2.15;;;;;;;;;;6267643;22;20060;-68
2022/01/07 08:36:00;;;;;;;4.72;2.70;;;;;;;;;;6266731;22;20069;-65
2022/01/07 08:38:27;;;;;;;6.95;2.90;;;;;;;;;;6264861;22;20003;-67
2022/01/07 08:40:53;;;;;;;6.68;3.63;;;;;;;;;;6266716;22;20008;-67
2022/01/07 08:43:19;;;;;;;5.55;2.78;;;;;;;;;;6265692;22;20015;-65
2022/01/07 08:45:45;;;;;;;5.10;2.30;;;;;;;;;;6265167;22;20496;-64
2022/01/07 08:48:11;;;;;;;3.30;2.63;;;;;;;;;;6265253;22;20004;-67
2022/01/07 08:50:37;;;;;;;5.75;2.33;;;;;;;;;;6265859;22;20000;-66
2022/01/07 08:53:03;;;;;;;6.63;2.08;;;;;;;;;;6264678;22;20002;-67
2022/01/07 08:55:30;;;;;;;5.93;2.47;;;;;;;;;;6266561;22;20075;-64
2022/01/07 08:57:56;;;;;;;7.20;3.00;;;;;;;;;;6266263;22;20007;-67
2022/01/07 09:00:24;;;;;;;10.63;3.30;;;;;;;;;;6266631;22;20083;-66
2022/01/07 09:02:50;;;;;;;11.18;2.70;;;;;;;;;;6266269;22;20574;-64
2022/01/07 09:05:16;;;;;;;5.30;2.42;;;;;;;;;;6266686;22;20396;-66
2022/01/07 09:07:42;;;;;;;7.32;2.33;;;;;;;;;;6263728;22;20008;-66
2022/01/07 09:10:08;;;;;;;5.20;2.03;;;;;;;;;;6264981;22;20004;-66
2022/01/07 09:12:34;;;;;;;7.95;2.30;;;;;;;;;;6264574;22;20438;-67
2022/01/07 09:15:00;;;;;;;4.95;2.40;;;;;;;;;;6266544;22;20004;-68
2022/01/07 09:17:30;;;;;;;3.33;2.08;;;;;;;;;;6266073;22;20484;-69
2022/01/07 09:19:56;;;;;;;7.13;2.25;;;;;;;;;;6265571;22;20014;-66
2022/01/07 09:22:22;;;;;;;6.03;2.65;;;;;;;;;;6266481;22;20098;-64
2022/01/07 09:24:48;;;;;;;5.45;1.83;;;;;;;;;;6264977;22;20031;-66
2022/01/07 09:27:14;;;;;;;3.58;1.98;;;;;;;;;;6265382;22;20611;-67
2022/01/07 09:29:40;;;;;;;8.15;2.22;;;;;;;;;;6265519;22;20000;-66
2022/01/07 09:32:07;;;;;;;3.25;2.00;;;;;;;;;;6266172;22;20381;-67
2022/01/07 09:34:33;;;;;;;5.93;3.10;;;;;;;;;;6265142;22;20007;-66
2022/01/07 09:36:59;;;;;;;8.48;2.35;;;;;;;;;;6267058;22;20011;-66
2022/01/07 09:39:25;;;;;;;4.25;2.03;;;;;;;;;;6264943;22;20007;-65
2022/01/07 09:41:51;;;;;;;5.80;2.22;;;;;;;;;;6266349;22;20053;-66
2022/01/07 09:44:17;;;;;;;12.90;3.17;;;;;;;;;;6264331;22;20004;-65
2022/01/07 09:46:46;;;;;;;4.82;2.35;;;;;;;;;;6266013;22;20004;-67
2022/01/07 09:49:24;;;;;;;5.85;2.40;;;;;;;;;;6266666;22;20074;-63
2022/01/07 09:51:50;;;;;;;7.90;2.33;;;;;;;;;;6264703;22;20083;-67
2022/01/07 09:54:17;;;;;;;7.07;2.90;;;;;;;;;;6266129;22;20004;-66
2022/01/07 09:56:43;;;;;;;6.10;2.25;;;;;;;;;;6265887;22;20061;-66
2022/01/07 09:59:10;;;;;;;4.63;2.40;;;;;;;;;;6265927;22;20029;-67
2022/01/07 10:01:54;;;;;;;8.55;2.83;;;;;;;;;;6264303;22;20003;-65
2022/01/07 10:04:33;;;;;;;5.75;2.75;;;;;;;;;;6263719;22;20012;-66
2022/01/07 10:07:17;;;;;;;5.80;3.05;;;;;;;;;;6263771;22;20406;-67
2022/01/07 10:10:05;;;;;;;10.95;3.35;;;;;;;;;;6264747;22;20000;-67
2022/01/07 10:12:52;;;;;;;7.50;3.28;;;;;;;;;;6264705;22;20004;-65
2022/01/07 10:15:22;;;;;;;8.93;2.92;;;;;;;;;;6241962;22;20007;-66
2022/01/07 10:17:56;;;;;;;9.38;3.00;;;;;;;;;;6264829;22;20008;-66
2022/01/07 10:20:27;;;;;;;9.88;2.35;;;;;;;;;;6265283;22;20004;-65
2022/01/07 10:22:54;;;;;;;4.95;2.65;;;;;;;;;;6265767;22;20393;-66
2022/01/07 10:25:24;;;;;;;7.53;2.42;;;;;;;;;;6266260;22;20008;-65
2022/01/07 10:27:52;;;;;;;6.32;2.75;;;;;;;;;;6266683;22;20011;-64
2022/01/07 10:30:25;;;;;;;5.22;2.28;;;;;;;;;;6266263;22;20071;-64
2022/01/07 10:32:51;;;;;;;10.07;3.30;;;;;;;;;;6265752;22;20004;-66
2022/01/07 10:35:19;;;;;;;5.07;3.28;;;;;;;;;;6265528;22;20415;-63
2022/01/07 10:37:45;;;;;;;5.05;2.80;;;;;;;;;;6267424;22;20008;-65
2022/01/07 10:40:26;;;;;;;5.30;2.70;;;;;;;;;;6267766;22;20012;-65
2022/01/07 10:43:15;;;;;;;9.25;2.90;;;;;;;;;;6267858;22;20003;-67
2022/01/07 10:45:43;;;;;;;7.78;2.70;;;;;;;;;;6254323;22;20425;-65
2022/01/07 10:48:09;;;;;;;5.93;2.58;;;;;;;;;;6267465;22;20004;-67
2022/01/07 10:50:54;;;;;;;5.05;3.15;;;;;;;;;;6266370;22;20007;-67
2022/01/07 10:53:21;;;;;;;9.43;4.00;;;;;;;;;;6268040;22;20007;-67
2022/01/07 10:56:16;;;;;;;5.13;2.35;;;;;;;;;;6268220;22;20373;-66
2022/01/07 10:58:45;;;;;;;10.63;2.88;;;;;;;;;;6247778;22;20083;-65
2022/01/07 11:01:20;;;;;;;4.85;2.28;;;;;;;;;;6266387;22;20164;-64
2022/01/07 11:03:47;;;;;;;5.63;2.67;;;;;;;;;;6267553;22;20041;-65
2022/01/07 11:06:13;;;;;;;3.40;2.50;;;;;;;;;;6267889;22;20350;-65
2022/01/07 11:08:40;;;;;;;7.13;3.05;;;;;;;;;;6267774;22;20000;-66
2022/01/07 11:11:08;;;;;;;6.97;2.80;;;;;;;;;;6266650;22;20334;-64
2022/01/07 11:13:35;;;;;;;3.63;2.58;;;;;;;;;;6266244;22;20015;-64
2022/01/07 11:16:04;;;;;;;4.78;3.20;;;;;;;;;;6266633;22;20003;-68
2022/01/07 11:18:31;;;;;;;6.32;3.40;;;;;;;;;;6267552;22;20010;-68
2022/01/07 11:20:58;;;;;;;12.20;6.07;;;;;;;;;;6267116;22;20082;-66
2022/01/07 11:23:27;;;;;;;16.55;6.00;;;;;;;;;;6266101;22;20016;-67
2022/01/07 11:26:01;;;;;;;11.43;5.05;;;;;;;;;;6267079;22;20008;-66
2022/01/07 11:28:27;;;;;;;6.85;2.85;;;;;;;;;;6265857;22;20070;-67
2022/01/07 11:31:03;;;;;;;5.20;3.00;;;;;;;;;;6267372;22;19999;-67
2022/01/07 11:33:30;;;;;;;7.13;5.07;;;;;;;;;;6266354;22;20004;-66
2022/01/07 11:35:56;;;;;;;6.90;4.13;;;;;;;;;;6264845;22;20381;-66
2022/01/07 11:38:38;;;;;;;15.07;7.97;;;;;;;;;;6266191;22;20019;-67
2022/01/07 11:41:05;;;;;;;5.60;2.97;;;;;;;;;;6268125;22;20619;-67
2022/01/07 11:43:33;;;;;;;7.53;5.07;;;;;;;;;;6265721;22;20346;-66
2022/01/07 11:46:00;;;;;;;5.07;3.60;;;;;;;;;;6265468;22;20342;-68
2022/01/07 11:48:30;;;;;;;5.47;2.95;;;;;;;;;;6266236;22;20488;-69
2022/01/07 11:50:56;;;;;;;4.57;2.75;;;;;;;;;;6266850;22;20050;-68
2022/01/07 11:53:23;;;;;;;5.45;2.85;;;;;;;;;;6266145;22;20118;-67
2022/01/07 11:55:52;;;;;;;4.07;2.65;;;;;;;;;;6268169;22;20834;-66
2022/01/07 11:58:19;;;;;;;3.80;2.58;;;;;;;;;;6266679;22;20004;-68
2022/01/07 12:00:48;;;;;;;2.92;2.45;;;;;;;;;;6264544;22;20018;-69
2022/01/07 12:03:14;;;;;;;9.70;5.35;;;;;;;;;;6266047;22;20189;-67
2022/01/07 12:05:40;;;;;;;12.82;5.75;;;;;;;;;;6265997;22;20004;-65
2022/01/07 12:08:06;;;;;;;16.13;7.05;;;;;;;;;;6265867;22;20003;-67
2022/01/07 12:10:32;;;;;;;5.50;3.70;;;;;;;;;;6266454;22;20003;-68
2022/01/07 12:13:01;;;;;;;8.35;5.85;;;;;;;;;;6265759;22;20438;-69
2022/01/07 12:15:28;;;;;;;9.63;6.63;;;;;;;;;;6267662;22;20004;-68
2022/01/07 12:17:54;;;;;;;8.52;4.45;;;;;;;;;;6265623;22;20668;-66
2022/01/07 12:20:36;;;;;;;7.90;4.90;;;;;;;;;;6264888;22;20015;-66
2022/01/07 12:23:02;;;;;;;6.55;3.70;;;;;;;;;;6264231;22;20391;-67
2022/01/07 12:25:28;;;;;;;8.63;4.88;;;;;;;;;;6265610;22;20003;-68
2022/01/07 12:28:01;;;;;;;30.05;12.80;;;;;;;;;;6266539;22;20023;-67
2022/01/07 12:30:28;;;;;;;67.10;22.05;;;;;;;;;;6264404;22;20018;-66
2022/01/07 12:32:58;;;;;;;37.72;13.70;;;;;;;;;;6264195;22;20034;-66
2022/01/07 12:35:29;;;;;;;18.85;8.35;;;;;;;;;;6265585;22;20012;-66
2022/01/07 12:37:55;;;;;;;6.78;5.30;;;;;;;;;;6265823;22;20011;-67
2022/01/07 12:40:21;;;;;;;6.55;5.22;;;;;;;;;;6263301;22;20057;-68
2022/01/07 12:42:47;;;;;;;9.52;4.85;;;;;;;;;;6266300;22;20008;-67
2022/01/07 12:45:16;;;;;;;6.03;5.43;;;;;;;;;;6266298;22;20039;-68
2022/01/07 12:47:42;;;;;;;5.97;5.38;;;;;;;;;;6266713;22;20069;-68
2022/01/07 12:50:09;;;;;;;7.30;5.10;;;;;;;;;;6266537;22;20432;-69
2022/01/07 12:52:37;;;;;;;8.63;5.88;;;;;;;;;;6265987;22;20110;-68
2022/01/07 12:55:18;;;;;;;17.80;7.63;;;;;;;;;;6264343;22;20007;-65
2022/01/07 12:57:51;;;;;;;9.40;6.45;;;;;;;;;;6265285;22;20015;-69
2022/01/07 13:00:22;;;;;;;7.00;4.57;;;;;;;;;;6265336;22;20004;-68
2022/01/07 13:02:49;;;;;;;4.97;4.13;;;;;;;;;;6264142;22;20011;-68
2022/01/07 13:05:22;;;;;;;6.30;4.30;;;;;;;;;;6266774;22;20004;-65
2022/01/07 13:07:49;;;;;;;5.32;3.85;;;;;;;;;;6265640;22;20000;-68
2022/01/07 13:10:25;;;;;;;6.60;4.57;;;;;;;;;;6267410;22;20004;-69
2022/01/07 13:12:53;;;;;;;11.15;6.53;;;;;;;;;;6264953;22;20014;-66
2022/01/07 13:15:33;;;;;;;6.78;4.97;;;;;;;;;;6265058;22;20011;-66
2022/01/07 13:18:20;;;;;;;4.28;3.30;;;;;;;;;;6266221;22;20014;-68
2022/01/07 13:20:47;;;;;;;6.35;4.28;;;;;;;;;;6265829;22;20007;-68
2022/01/07 13:23:14;;;;;;;6.07;4.15;;;;;;;;;;6264398;22;20011;-68
2022/01/07 13:25:41;;;;;;;6.00;3.65;;;;;;;;;;6267039;22;20031;-67
2022/01/07 13:28:07;;;;;;;6.07;4.10;;;;;;;;;;6266602;22;20012;-67
2022/01/07 13:30:38;;;;;;;4.75;3.45;;;;;;;;;;6266843;22;20003;-68
2022/01/07 13:33:07;;;;;;;8.73;5.07;;;;;;;;;;6266742;22;20003;-66
2022/01/07 13:35:35;;;;;;;32.97;13.13;;;;;;;;;;6267028;22;20003;-69
2022/01/07 13:38:02;;;;;;;42.08;17.67;;;;;;;;;;6266591;22;20008;-67
2022/01/07 13:40:29;;;;;;;14.15;7.53;;;;;;;;;;6267105;22;20489;-66
2022/01/07 13:43:15;;;;;;;19.88;10.80;;;;;;;;;;6264734;22;20038;-67
2022/01/07 13:45:41;;;;;;;7.72;5.53;;;;;;;;;;6267057;22;20023;-67
2022/01/07 13:48:12;;;;;;;6.85;3.53;;;;;;;;;;6265253;22;20000;-66
2022/01/07 13:50:40;;;;;;;8.48;6.38;;;;;;;;;;6266010;22;20012;-66
2022/01/07 13:53:16;;;;;;;7.97;5.22;;;;;;;;;;6266659;22;20004;-66
2022/01/07 13:55:43;;;;;;;5.65;4.00;;;;;;;;;;6265040;22;20034;-67
2022/01/07 13:58:10;;;;;;;5.30;4.75;;;;;;;;;;6265957;22;20004;-68
2022/01/07 14:00:37;;;;;;;5.60;3.67;;;;;;;;;;6269630;22;20450;-68
2022/01/07 14:03:04;;;;;;;7.15;4.50;;;;;;;;;;6269113;22;20070;-71
2022/01/07 14:05:31;;;;;;;56.60;34.85;;;;;;;;;;6269331;22;20008;-67
2022/01/07 14:07:57;;;;;;;34.00;19.15;;;;;;;;;;6266143;22;20065;-67
2022/01/07 14:10:35;;;;;;;48.47;28.90;;;;;;;;;;6268895;22;20000;-65
2022/01/07 14:13:06;;;;;;;18.58;11.80;;;;;;;;;;6267305;22;20000;-67
2022/01/07 14:15:32;;;;;;;20.55;11.95;;;;;;;;;;6268157;22;20008;-66
2022/01/07 14:18:18;;;;;;;53.13;37.85;;;;;;;;;;6266676;22;20058;-65
2022/01/07 14:20:47;;;;;;;13.30;9.65;;;;;;;;;;6266162;22;20519;-66
2022/01/07 14:23:14;;;;;;;14.35;9.25;;;;;;;;;;6265014;22;20077;-67
2022/01/07 14:25:40;;;;;;;12.05;7.00;;;;;;;;;;6267324;22;20011;-65
2022/01/07 14:28:08;;;;;;;10.57;7.32;;;;;;;;;;6268264;22;20026;-66
2022/01/07 14:30:34;;;;;;;30.42;26.65;;;;;;;;;;6267744;22;20033;-64
2022/01/07 14:33:01;;;;;;;25.63;17.65;;;;;;;;;;6269113;22;20496;-67
2022/01/07 14:35:27;;;;;;;11.43;8.98;;;;;;;;;;6268424;22;20007;-68
2022/01/07 14:37:53;;;;;;;19.80;17.17;;;;;;;;;;6268125;22;20024;-69
2022/01/07 14:40:19;;;;;;;11.00;9.90;;;;;;;;;;6265828;22;20083;-65
2022/01/07 14:42:45;;;;;;;20.17;15.27;;;;;;;;;;6269043;22;20019;-67
2022/01/07 14:45:11;;;;;;;101.78;40.88;;;;;;;;;;6267763;22;20060;-65
2022/01/07 14:47:38;;;;;;;40.03;19.80;;;;;;;;;;6269001;22;20000;-66
2022/01/07 14:50:04;;;;;;;46.58;21.23;;;;;;;;;;6265715;22;20008;-67
2022/01/07 14:52:30;;;;;;;25.95;12.23;;;;;;;;;;6267332;22;20003;-66
2022/01/07 14:54:56;;;;;;;50.67;35.67;;;;;;;;;;6267428;22;20003;-72